weather.gov     
National Weather Service

Terminal Aerodrome Forecast
NWS Homepage
This page is being discontinued on March 12, 2014.
The same data is available at this site. Please update your bookmarks.
Thank you, and we apologize for the inconvenience.
Please send an email to SR-SRH.Webmaster@noaa.gov with any concerns.


Current Version
Previous Version:    01  02  03  04  05  06  07  08  09  10  11  12  13  14  15  16  17  18  19  20  21  22  23  24  25  26  27  
[Printable]
080
FTAK31 PAJN 202300
TAFAWG
TAF
PAWG 202335Z 2100/2124 11010KT P6SM SCT040 OVC080
     FM210400 11010KT P6SM VCSH SCT025 OVC060
     FM211500 12012G20KT P6SM -RA SCT025 OVC050 WS020/14035KT
     FM212000 VRB05KT P6SM VCSH BKN060
      AMD LTD TO CLD VIS AND WIND 2106/2115=


U.S. Dept. of Commerce
NOAA National Weather Service
1325 East West Highway
Silver Spring, MD 20910
E-mail: w-nws.webmaster@noaa.gov
Page last modified: May 16, 2007
NATIONAL WEATHER SERVICE: for Safety, for Work, for Fun - FOR LIFE